Terminal Aerodrome Forecast
Issued by NWS

Home | Current Version | Previous Version | Text Only | Print | Product List | Glossary On
Versions: 1 2 3 4 5 6 7 8 9 10 11 12 13 14 15 16 17 18 19
000
FTUS43 KILX 290500
TAFDEC
TAF
KDEC 290540Z 2906/3006 18012KT P6SM BKN200
     FM291200 19014KT P6SM BKN040
     FM291400 19014KT 4SM BR BKN020
     FM291900 19014G20KT P6SM SCT025 BKN250
     FM300000 19012KT P6SM BKN250=

USA.gov is the U.S. government's official web portal to all federal, state and local government web resources and services.